sensor_id;sensor_type;location;lat;lon;timestamp;pressure;altitude;pressure_sealevel;temperature;humidity
39789;BME280;25478;42.626;23.320;2023-04-15T00:00:28;92332.47;;;6.53;87.09
39789;BME280;25478;42.626;23.320;2023-04-15T00:02:54;92339.97;;;6.58;88.07
39789;BME280;25478;42.626;23.320;2023-04-15T00:05:20;92338.81;;;6.56;88.66
39789;BME280;25478;42.626;23.320;2023-04-15T00:07:46;92352.25;;;6.54;88.52
39789;BME280;25478;42.626;23.320;2023-04-15T00:10:12;92347.75;;;6.47;89.09
39789;BME280;25478;42.626;23.320;2023-04-15T00:12:39;92353.00;;;6.51;89.02
39789;BME280;25478;42.626;23.320;2023-04-15T00:15:06;92354.06;;;6.39;89.37
39789;BME280;25478;42.626;23.320;2023-04-15T00:17:32;92354.38;;;6.31;89.55
39789;BME280;25478;42.626;23.320;2023-04-15T00:19:58;92385.81;;;6.41;90.31
39789;BME280;25478;42.626;23.320;2023-04-15T00:22:25;92355.44;;;6.23;90.40
39789;BME280;25478;42.626;23.320;2023-04-15T00:24:52;92375.72;;;6.40;89.88
39789;BME280;25478;42.626;23.320;2023-04-15T00:27:18;92363.03;;;6.42;89.65
39789;BME280;25478;42.626;23.320;2023-04-15T00:29:44;92363.44;;;6.47;89.81
39789;BME280;25478;42.626;23.320;2023-04-15T00:32:10;92368.31;;;6.53;89.55
39789;BME280;25478;42.626;23.320;2023-04-15T00:34:35;92372.06;;;6.55;89.17
39789;BME280;25478;42.626;23.320;2023-04-15T00:37:01;92366.50;;;6.57;89.36
39789;BME280;25478;42.626;23.320;2023-04-15T00:39:27;92375.84;;;6.58;89.78
39789;BME280;25478;42.626;23.320;2023-04-15T00:41:52;92368.69;;;6.55;90.08
39789;BME280;25478;42.626;23.320;2023-04-15T00:44:19;92381.41;;;6.53;89.99
39789;BME280;25478;42.626;23.320;2023-04-15T00:46:45;92374.66;;;6.52;90.75
39789;BME280;25478;42.626;23.320;2023-04-15T00:49:11;92371.31;;;6.51;90.63
39789;BME280;25478;42.626;23.320;2023-04-15T00:51:37;92340.91;;;6.29;90.76
39789;BME280;25478;42.626;23.320;2023-04-15T00:54:03;92379.53;;;6.53;90.97
39789;BME280;25478;42.626;23.320;2023-04-15T00:56:30;92376.91;;;6.53;91.32
39789;BME280;25478;42.626;23.320;2023-04-15T00:58:57;92366.41;;;6.46;91.11
39789;BME280;25478;42.626;23.320;2023-04-15T01:01:24;92361.81;;;6.29;91.13
39789;BME280;25478;42.626;23.320;2023-04-15T01:03:50;92368.25;;;6.42;91.24
39789;BME280;25478;42.626;23.320;2023-04-15T01:06:17;92381.75;;;6.51;91.00
39789;BME280;25478;42.626;23.320;2023-04-15T01:08:43;92391.47;;;6.51;91.87
39789;BME280;25478;42.626;23.320;2023-04-15T01:11:12;92388.47;;;6.48;91.76
39789;BME280;25478;42.626;23.320;2023-04-15T01:13:39;92380.28;;;6.54;91.88
39789;BME280;25478;42.626;23.320;2023-04-15T01:16:07;92351.41;;;6.36;91.80
39789;BME280;25478;42.626;23.320;2023-04-15T01:18:33;92376.53;;;6.55;91.72
39789;BME280;25478;42.626;23.320;2023-04-15T01:21:00;92361.94;;;6.46;91.52
39789;BME280;25478;42.626;23.320;2023-04-15T01:23:26;92370.94;;;6.53;92.45
39789;BME280;25478;42.626;23.320;2023-04-15T01:25:52;92347.34;;;6.42;91.84
39789;BME280;25478;42.626;23.320;2023-04-15T01:28:18;92361.59;;;6.48;91.55
39789;BME280;25478;42.626;23.320;2023-04-15T01:30:44;92362.66;;;6.43;91.58
39789;BME280;25478;42.626;23.320;2023-04-15T01:33:10;92371.22;;;6.37;91.61
39789;BME280;25478;42.626;23.320;2023-04-15T01:35:37;92368.19;;;6.31;92.23
39789;BME280;25478;42.626;23.320;2023-04-15T01:38:07;92365.91;;;6.26;91.92
39789;BME280;25478;42.626;23.320;2023-04-15T01:40:33;92371.13;;;6.23;92.10
39789;BME280;25478;42.626;23.320;2023-04-15T01:43:02;92374.81;;;6.18;91.71
39789;BME280;25478;42.626;23.320;2023-04-15T01:45:29;92370.66;;;6.10;92.28
39789;BME280;25478;42.626;23.320;2023-04-15T01:47:55;92375.50;;;6.08;92.51
39789;BME280;25478;42.626;23.320;2023-04-15T01:50:20;92389.25;;;6.05;92.15
39789;BME280;25478;42.626;23.320;2023-04-15T01:52:47;92375.00;;;5.91;92.81
39789;BME280;25478;42.626;23.320;2023-04-15T01:55:13;92384.75;;;5.98;92.81
39789;BME280;25478;42.626;23.320;2023-04-15T01:57:39;92390.31;;;5.97;92.52
39789;BME280;25478;42.626;23.320;2023-04-15T02:00:06;92380.13;;;5.84;93.00
39789;BME280;25478;42.626;23.320;2023-04-15T02:02:38;92388.38;;;5.90;92.70
39789;BME280;25478;42.626;23.320;2023-04-15T02:05:04;92393.94;;;5.88;93.35
39789;BME280;25478;42.626;23.320;2023-04-15T02:07:30;92379.00;;;5.82;93.47
39789;BME280;25478;42.626;23.320;2023-04-15T02:09:56;92383.94;;;5.90;92.96
39789;BME280;25478;42.626;23.320;2023-04-15T02:12:22;92384.69;;;5.91;92.90
39789;BME280;25478;42.626;23.320;2023-04-15T02:14:48;92373.84;;;5.89;93.05
39789;BME280;25478;42.626;23.320;2023-04-15T02:17:14;92364.44;;;5.81;92.27
39789;BME280;25478;42.626;23.320;2023-04-15T02:19:42;92376.03;;;5.87;92.47
39789;BME280;25478;42.626;23.320;2023-04-15T02:22:07;92353.13;;;5.70;92.48
39789;BME280;25478;42.626;23.320;2023-04-15T02:24:33;92370.03;;;5.83;92.13
39789;BME280;25478;42.626;23.320;2023-04-15T02:27:00;92373.41;;;5.83;92.08
39789;BME280;25478;42.626;23.320;2023-04-15T02:29:27;92369.69;;;5.84;92.21
39789;BME280;25478;42.626;23.320;2023-04-15T02:31:52;92368.19;;;5.83;91.46
39789;BME280;25478;42.626;23.320;2023-04-15T02:34:19;92356.94;;;5.79;91.91
39789;BME280;25478;42.626;23.320;2023-04-15T02:36:44;92368.84;;;5.77;92.11
39789;BME280;25478;42.626;23.320;2023-04-15T02:39:13;92361.72;;;5.70;92.16
39789;BME280;25478;42.626;23.320;2023-04-15T02:41:41;92359.81;;;5.63;91.60
39789;BME280;25478;42.626;23.320;2023-04-15T02:44:08;92361.63;;;5.59;92.18
39789;BME280;25478;42.626;23.320;2023-04-15T02:46:34;92372.06;;;5.59;91.54
39789;BME280;25478;42.626;23.320;2023-04-15T02:49:00;92373.53;;;5.57;91.76
39789;BME280;25478;42.626;23.320;2023-04-15T02:51:29;92321.38;;;5.23;91.60
39789;BME280;25478;42.626;23.320;2023-04-15T02:53:55;92361.19;;;5.54;91.92
39789;BME280;25478;42.626;23.320;2023-04-15T02:56:22;92374.25;;;5.54;91.28
39789;BME280;25478;42.626;23.320;2023-04-15T02:58:48;92366.66;;;5.42;91.11
39789;BME280;25478;42.626;23.320;2023-04-15T03:01:14;92368.47;;;5.37;91.37
39789;BME280;25478;42.626;23.320;2023-04-15T03:03:40;92368.06;;;5.32;91.89
39789;BME280;25478;42.626;23.320;2023-04-15T03:06:06;92375.91;;;5.32;91.79
39789;BME280;25478;42.626;23.320;2023-04-15T03:08:33;92374.72;;;5.29;91.80
39789;BME280;25478;42.626;23.320;2023-04-15T03:10:59;92384.78;;;5.27;91.66
39789;BME280;25478;42.626;23.320;2023-04-15T03:13:26;92373.53;;;5.20;91.77
39789;BME280;25478;42.626;23.320;2023-04-15T03:15:53;92387.00;;;5.25;91.53
39789;BME280;25478;42.626;23.320;2023-04-15T03:18:20;92394.84;;;5.25;91.97
39789;BME280;25478;42.626;23.320;2023-04-15T03:20:46;92395.59;;;5.26;91.73
39789;BME280;25478;42.626;23.320;2023-04-15T03:23:12;92398.56;;;5.24;91.61
39789;BME280;25478;42.626;23.320;2023-04-15T03:25:37;92392.50;;;5.17;91.62
39789;BME280;25478;42.626;23.320;2023-04-15T03:28:05;92407.09;;;5.21;91.80
39789;BME280;25478;42.626;23.320;2023-04-15T03:30:31;92394.38;;;5.16;91.82
39789;BME280;25478;42.626;23.320;2023-04-15T03:32:57;92404.06;;;5.16;91.43
39789;BME280;25478;42.626;23.320;2023-04-15T03:35:22;92394.56;;;5.04;91.66
39789;BME280;25478;42.626;23.320;2023-04-15T03:37:48;92413.56;;;5.01;91.57
39789;BME280;25478;42.626;23.320;2023-04-15T03:40:13;92417.94;;;4.93;91.62
39789;BME280;25478;42.626;23.320;2023-04-15T03:42:39;92412.97;;;4.85;92.05
39789;BME280;25478;42.626;23.320;2023-04-15T03:45:05;92422.28;;;4.82;92.23
39789;BME280;25478;42.626;23.320;2023-04-15T03:47:32;92430.75;;;4.75;92.77
39789;BME280;25478;42.626;23.320;2023-04-15T03:49:57;92450.09;;;4.74;92.76
39789;BME280;25478;42.626;23.320;2023-04-15T03:52:22;92448.59;;;4.73;93.08
39789;BME280;25478;42.626;23.320;2023-04-15T03:54:48;92435.50;;;4.70;93.27
39789;BME280;25478;42.626;23.320;2023-04-15T03:57:13;92432.16;;;4.69;93.20
39789;BME280;25478;42.626;23.320;2023-04-15T03:59:39;92434.00;;;4.69;93.16
39789;BME280;25478;42.626;23.320;2023-04-15T04:02:04;92431.09;;;4.74;93.48
39789;BME280;25478;42.626;23.320;2023-04-15T04:04:30;92424.38;;;4.73;93.44
39789;BME280;25478;42.626;23.320;2023-04-15T04:06:56;92425.81;;;4.70;93.36
39789;BME280;25478;42.626;23.320;2023-04-15T04:09:21;92439.78;;;4.82;93.65
39789;BME280;25478;42.626;23.320;2023-04-15T04:11:47;92439.13;;;4.88;93.38
39789;BME280;25478;42.626;23.320;2023-04-15T04:14:14;92439.19;;;4.95;93.57
39789;BME280;25478;42.626;23.320;2023-04-15T04:16:40;92437.50;;;5.06;92.76
39789;BME280;25478;42.626;23.320;2023-04-15T04:19:06;92436.09;;;5.16;92.75
39789;BME280;25478;42.626;23.320;2023-04-15T04:21:32;92448.59;;;5.30;92.34
39789;BME280;25478;42.626;23.320;2023-04-15T04:23:58;92436.97;;;5.61;91.34
39789;BME280;25478;42.626;23.320;2023-04-15T04:26:24;92434.53;;;6.16;89.39
39789;BME280;25478;42.626;23.320;2023-04-15T04:28:50;92437.38;;;6.44;88.43
39789;BME280;25478;42.626;23.320;2023-04-15T04:31:15;92437.47;;;6.59;87.71
39789;BME280;25478;42.626;23.320;2023-04-15T04:33:41;92443.13;;;6.64;87.77
39789;BME280;25478;42.626;23.320;2023-04-15T04:36:06;92446.44;;;6.58;88.23
39789;BME280;25478;42.626;23.320;2023-04-15T04:38:32;92439.34;;;6.58;88.46
39789;BME280;25478;42.626;23.320;2023-04-15T04:40:57;92446.13;;;6.70;88.11
39789;BME280;25478;42.626;23.320;2023-04-15T04:43:23;92453.75;;;6.93;87.32
39789;BME280;25478;42.626;23.320;2023-04-15T04:45:49;92453.16;;;7.21;86.21
39789;BME280;25478;42.626;23.320;2023-04-15T04:48:14;92457.41;;;7.50;85.71
39789;BME280;25478;42.626;23.320;2023-04-15T04:50:41;92458.22;;;7.72;85.28
39789;BME280;25478;42.626;23.320;2023-04-15T04:53:07;92455.69;;;8.01;83.86
39789;BME280;25478;42.626;23.320;2023-04-15T04:55:32;92453.81;;;8.19;82.96
39789;BME280;25478;42.626;23.320;2023-04-15T04:58:01;92441.47;;;8.34;81.82
39789;BME280;25478;42.626;23.320;2023-04-15T05:00:27;92466.22;;;8.54;81.12
39789;BME280;25478;42.626;23.320;2023-04-15T05:02:53;92479.34;;;8.86;80.19
39789;BME280;25478;42.626;23.320;2023-04-15T05:05:18;92485.69;;;8.99;79.05
39789;BME280;25478;42.626;23.320;2023-04-15T05:07:44;92489.06;;;9.14;77.75
39789;BME280;25478;42.626;23.320;2023-04-15T05:10:09;92497.28;;;9.23;76.78
39789;BME280;25478;42.626;23.320;2023-04-15T05:12:35;92508.16;;;9.29;76.14
39789;BME280;25478;42.626;23.320;2023-04-15T05:15:03;92511.91;;;9.35;74.72
39789;BME280;25478;42.626;23.320;2023-04-15T05:17:28;92515.66;;;9.23;74.25
39789;BME280;25478;42.626;23.320;2023-04-15T05:19:56;92505.53;;;9.22;73.69
39789;BME280;25478;42.626;23.320;2023-04-15T05:22:21;92513.06;;;9.27;73.61
39789;BME280;25478;42.626;23.320;2023-04-15T05:24:47;92513.75;;;9.45;73.73
39789;BME280;25478;42.626;23.320;2023-04-15T05:27:12;92517.75;;;9.82;72.00
39789;BME280;25478;42.626;23.320;2023-04-15T05:29:38;92496.63;;;10.00;70.21
39789;BME280;25478;42.626;23.320;2023-04-15T05:32:03;92510.34;;;10.39;68.50
39789;BME280;25478;42.626;23.320;2023-04-15T05:34:29;92492.66;;;10.47;65.68
39789;BME280;25478;42.626;23.320;2023-04-15T05:36:55;92498.97;;;10.57;65.12
39789;BME280;25478;42.626;23.320;2023-04-15T05:39:21;92499.13;;;10.87;63.94
39789;BME280;25478;42.626;23.320;2023-04-15T05:41:47;92499.63;;;11.16;63.48
39789;BME280;25478;42.626;23.320;2023-04-15T05:44:12;92500.13;;;11.42;62.25
39789;BME280;25478;42.626;23.320;2023-04-15T05:46:38;92501.78;;;11.63;60.34
39789;BME280;25478;42.626;23.320;2023-04-15T05:49:03;92507.84;;;11.60;59.59
39789;BME280;25478;42.626;23.320;2023-04-15T05:51:29;92507.94;;;11.52;59.76
39789;BME280;25478;42.626;23.320;2023-04-15T05:53:54;92506.66;;;11.64;59.40
39789;BME280;25478;42.626;23.320;2023-04-15T05:56:20;92500.50;;;11.78;58.54
39789;BME280;25478;42.626;23.320;2023-04-15T05:58:47;92517.03;;;11.86;58.88
39789;BME280;25478;42.626;23.320;2023-04-15T06:01:13;92525.97;;;11.92;59.29
39789;BME280;25478;42.626;23.320;2023-04-15T06:03:39;92515.47;;;11.88;59.40
39789;BME280;25478;42.626;23.320;2023-04-15T06:06:04;92521.09;;;11.90;59.72
39789;BME280;25478;42.626;23.320;2023-04-15T06:08:30;92524.25;;;12.08;59.72
39789;BME280;25478;42.626;23.320;2023-04-15T06:10:57;92526.31;;;12.28;58.67
39789;BME280;25478;42.626;23.320;2023-04-15T06:13:22;92528.66;;;12.49;57.71
39789;BME280;25478;42.626;23.320;2023-04-15T06:15:48;92528.34;;;12.71;56.80
39789;BME280;25478;42.626;23.320;2023-04-15T06:18:13;92529.50;;;12.93;55.43
39789;BME280;25478;42.626;23.320;2023-04-15T06:20:39;92530.03;;;13.08;54.35
39789;BME280;25478;42.626;23.320;2023-04-15T06:23:05;92544.44;;;13.30;53.75
39789;BME280;25478;42.626;23.320;2023-04-15T06:25:31;92545.63;;;13.26;52.58
39789;BME280;25478;42.626;23.320;2023-04-15T06:27:56;92535.03;;;13.02;52.59
39789;BME280;25478;42.626;23.320;2023-04-15T06:30:22;92540.03;;;12.96;53.38
39789;BME280;25478;42.626;23.320;2023-04-15T06:32:47;92545.72;;;13.18;52.96
39789;BME280;25478;42.626;23.320;2023-04-15T06:35:13;92545.91;;;13.08;52.27
39789;BME280;25478;42.626;23.320;2023-04-15T06:37:39;92558.97;;;12.91;52.38
39789;BME280;25478;42.626;23.320;2023-04-15T06:40:05;92562.94;;;12.80;53.33
39789;BME280;25478;42.626;23.320;2023-04-15T06:42:32;92558.59;;;12.66;53.23
39789;BME280;25478;42.626;23.320;2023-04-15T06:44:58;92510.47;;;12.28;53.38
39789;BME280;25478;42.626;23.320;2023-04-15T06:47:23;92562.53;;;12.54;53.07
39789;BME280;25478;42.626;23.320;2023-04-15T06:49:49;92575.63;;;12.61;53.72
39789;BME280;25478;42.626;23.320;2023-04-15T06:52:15;92562.69;;;12.71;53.30
39789;BME280;25478;42.626;23.320;2023-04-15T06:54:41;92565.50;;;12.83;53.09
39789;BME280;25478;42.626;23.320;2023-04-15T06:57:07;92562.88;;;12.83;52.41
39789;BME280;25478;42.626;23.320;2023-04-15T06:59:33;92570.09;;;12.79;53.07
39789;BME280;25478;42.626;23.320;2023-04-15T07:01:58;92568.63;;;13.02;53.19
39789;BME280;25478;42.626;23.320;2023-04-15T07:04:24;92572.25;;;13.11;52.63
39789;BME280;25478;42.626;23.320;2023-04-15T07:06:49;92583.47;;;13.22;51.80
39789;BME280;25478;42.626;23.320;2023-04-15T07:09:16;92578.84;;;13.27;51.78
39789;BME280;25478;42.626;23.320;2023-04-15T07:11:42;92582.97;;;13.51;51.87
39789;BME280;25478;42.626;23.320;2023-04-15T07:14:07;92565.59;;;13.73;51.59
39789;BME280;25478;42.626;23.320;2023-04-15T07:16:33;92571.31;;;13.92;50.88
39789;BME280;25478;42.626;23.320;2023-04-15T07:18:58;92570.16;;;13.93;50.72
39789;BME280;25478;42.626;23.320;2023-04-15T07:21:24;92578.63;;;14.04;50.34
39789;BME280;25478;42.626;23.320;2023-04-15T07:23:50;92577.03;;;14.10;50.22
39789;BME280;25478;42.626;23.320;2023-04-15T07:26:15;92575.25;;;14.23;50.07
39789;BME280;25478;42.626;23.320;2023-04-15T07:28:41;92583.72;;;14.34;49.48
39789;BME280;25478;42.626;23.320;2023-04-15T07:31:06;92585.91;;;14.40;48.91
39789;BME280;25478;42.626;23.320;2023-04-15T07:33:32;92574.16;;;14.41;48.38
39789;BME280;25478;42.626;23.320;2023-04-15T07:35:57;92573.56;;;14.33;49.15
39789;BME280;25478;42.626;23.320;2023-04-15T07:38:22;92567.25;;;14.27;50.07
39789;BME280;25478;42.626;23.320;2023-04-15T07:40:48;92561.13;;;14.10;49.79
39789;BME280;25478;42.626;23.320;2023-04-15T07:43:15;92565.41;;;14.24;48.93
39789;BME280;25478;42.626;23.320;2023-04-15T07:45:40;92578.25;;;14.25;48.24
39789;BME280;25478;42.626;23.320;2023-04-15T07:48:07;92586.81;;;14.13;48.91
39789;BME280;25478;42.626;23.320;2023-04-15T07:50:32;92592.56;;;14.08;48.87
39789;BME280;25478;42.626;23.320;2023-04-15T07:52:58;92580.63;;;14.00;49.14
39789;BME280;25478;42.626;23.320;2023-04-15T07:55:24;92598.25;;;13.87;49.03
39789;BME280;25478;42.626;23.320;2023-04-15T07:57:49;92591.84;;;13.64;48.65
39789;BME280;25478;42.626;23.320;2023-04-15T08:00:16;92595.78;;;13.52;49.12
39789;BME280;25478;42.626;23.320;2023-04-15T08:02:42;92601.72;;;13.60;48.80
39789;BME280;25478;42.626;23.320;2023-04-15T08:05:09;92598.50;;;13.72;48.58
39789;BME280;25478;42.626;23.320;2023-04-15T08:07:37;92590.22;;;13.70;49.55
39789;BME280;25478;42.626;23.320;2023-04-15T08:10:03;92574.22;;;13.77;49.08
39789;BME280;25478;42.626;23.320;2023-04-15T08:12:29;92599.56;;;13.98;47.95
39789;BME280;25478;42.626;23.320;2023-04-15T08:14:54;92604.28;;;13.87;48.31
39789;BME280;25478;42.626;23.320;2023-04-15T08:17:21;92604.69;;;13.86;47.63
39789;BME280;25478;42.626;23.320;2023-04-15T08:19:47;92605.31;;;13.70;47.97
39789;BME280;25478;42.626;23.320;2023-04-15T08:22:13;92587.13;;;13.52;48.72
39789;BME280;25478;42.626;23.320;2023-04-15T08:24:39;92604.28;;;13.87;47.74
39789;BME280;25478;42.626;23.320;2023-04-15T08:27:04;92597.03;;;13.91;47.82
39789;BME280;25478;42.626;23.320;2023-04-15T08:29:31;92606.91;;;13.87;47.75
39789;BME280;25478;42.626;23.320;2023-04-15T08:31:58;92600.09;;;13.90;48.05
39789;BME280;25478;42.626;23.320;2023-04-15T08:34:24;92584.22;;;13.90;47.57
39789;BME280;25478;42.626;23.320;2023-04-15T08:36:50;92591.94;;;13.80;47.77
39789;BME280;25478;42.626;23.320;2023-04-15T08:39:16;92590.09;;;13.77;48.07
39789;BME280;25478;42.626;23.320;2023-04-15T08:41:46;92591.56;;;13.78;47.62
39789;BME280;25478;42.626;23.320;2023-04-15T08:44:13;92586.78;;;13.73;48.48
39789;BME280;25478;42.626;23.320;2023-04-15T08:46:40;92583.72;;;13.75;47.14
39789;BME280;25478;42.626;23.320;2023-04-15T08:49:09;92574.69;;;13.72;45.32
39789;BME280;25478;42.626;23.320;2023-04-15T08:51:35;92585.94;;;13.76;45.77
39789;BME280;25478;42.626;23.320;2023-04-15T08:54:01;92570.25;;;13.89;46.11
39789;BME280;25478;42.626;23.320;2023-04-15T08:56:29;92575.88;;;14.11;45.47
39789;BME280;25478;42.626;23.320;2023-04-15T08:58:58;92561.44;;;13.96;42.63
39789;BME280;25478;42.626;23.320;2023-04-15T09:01:23;92563.00;;;14.13;40.11
39789;BME280;25478;42.626;23.320;2023-04-15T09:03:49;92563.19;;;14.22;41.87
39789;BME280;25478;42.626;23.320;2023-04-15T09:06:16;92564.47;;;14.34;42.99
39789;BME280;25478;42.626;23.320;2023-04-15T09:08:42;92549.31;;;14.34;42.56
39789;BME280;25478;42.626;23.320;2023-04-15T09:11:07;92561.97;;;14.47;42.37
39789;BME280;25478;42.626;23.320;2023-04-15T09:13:33;92558.41;;;14.53;42.19
39789;BME280;25478;42.626;23.320;2023-04-15T09:16:01;92538.31;;;14.56;40.63
39789;BME280;25478;42.626;23.320;2023-04-15T09:18:31;92548.19;;;14.72;37.94
39789;BME280;25478;42.626;23.320;2023-04-15T09:23:41;92533.53;;;14.67;38.96
39789;BME280;25478;42.626;23.320;2023-04-15T09:26:18;92559.94;;;14.71;38.63
39789;BME280;25478;42.626;23.320;2023-04-15T09:28:43;92544.13;;;14.67;39.36
39789;BME280;25478;42.626;23.320;2023-04-15T09:31:09;92543.13;;;14.77;38.84
39789;BME280;25478;42.626;23.320;2023-04-15T09:33:35;92548.69;;;14.83;37.67
39789;BME280;25478;42.626;23.320;2023-04-15T09:36:19;92548.28;;;15.01;36.76
39789;BME280;25478;42.626;23.320;2023-04-15T09:38:55;92533.72;;;15.09;37.56
39789;BME280;25478;42.626;23.320;2023-04-15T09:41:21;92522.53;;;15.17;36.19
39789;BME280;25478;42.626;23.320;2023-04-15T09:43:47;92529.31;;;15.18;34.97
39789;BME280;25478;42.626;23.320;2023-04-15T09:46:13;92555.81;;;15.35;34.23
39789;BME280;25478;42.626;23.320;2023-04-15T09:48:38;92557.56;;;15.41;33.91
39789;BME280;25478;42.626;23.320;2023-04-15T09:51:04;92565.59;;;15.38;32.94
39789;BME280;25478;42.626;23.320;2023-04-15T09:53:33;92570.91;;;15.38;33.05
39789;BME280;25478;42.626;23.320;2023-04-15T09:55:59;92570.97;;;15.51;33.14
39789;BME280;25478;42.626;23.320;2023-04-15T09:58:30;92563.19;;;15.60;33.50
39789;BME280;25478;42.626;23.320;2023-04-15T10:00:57;92541.38;;;15.68;33.26
39789;BME280;25478;42.626;23.320;2023-04-15T10:03:34;92547.28;;;15.89;32.75
39789;BME280;25478;42.626;23.320;2023-04-15T10:06:01;92524.81;;;15.93;32.86
39789;BME280;25478;42.626;23.320;2023-04-15T10:08:32;92539.94;;;16.09;32.91
39789;BME280;25478;42.626;23.320;2023-04-15T10:11:02;92542.53;;;16.25;33.14
39789;BME280;25478;42.626;23.320;2023-04-15T10:13:30;92542.66;;;16.35;32.91
39789;BME280;25478;42.626;23.320;2023-04-15T10:16:11;92530.75;;;16.39;33.12
39789;BME280;25478;42.626;23.320;2023-04-15T10:18:42;92543.75;;;16.50;32.95
39789;BME280;25478;42.626;23.320;2023-04-15T10:21:08;92531.50;;;16.52;32.78
39789;BME280;25478;42.626;23.320;2023-04-15T10:23:34;92504.31;;;16.61;31.81
39789;BME280;25478;42.626;23.320;2023-04-15T10:26:01;92527.91;;;16.97;31.81
39789;BME280;25478;42.626;23.320;2023-04-15T10:28:27;92536.13;;;17.15;31.80
39789;BME280;25478;42.626;23.320;2023-04-15T10:30:53;92526.31;;;17.25;31.32
39789;BME280;25478;42.626;23.320;2023-04-15T10:33:20;92526.63;;;17.27;31.56
39789;BME280;25478;42.626;23.320;2023-04-15T10:35:47;92530.75;;;17.28;31.39
39789;BME280;25478;42.626;23.320;2023-04-15T10:41:19;92527.88;;;17.35;30.57
39789;BME280;25478;42.626;23.320;2023-04-15T10:43:59;92522.25;;;17.33;30.50
39789;BME280;25478;42.626;23.320;2023-04-15T10:46:38;92520.75;;;17.32;30.41
39789;BME280;25478;42.626;23.320;2023-04-15T10:49:23;92510.13;;;17.20;30.23
39789;BME280;25478;42.626;23.320;2023-04-15T10:51:57;92530.44;;;17.26;29.55
39789;BME280;25478;42.626;23.320;2023-04-15T10:59:29;92500.25;;;17.20;30.01
39789;BME280;25478;42.626;23.320;2023-04-15T11:02:00;92511.13;;;17.48;29.39
39789;BME280;25478;42.626;23.320;2023-04-15T11:04:55;92516.84;;;17.59;28.61
39789;BME280;25478;42.626;23.320;2023-04-15T11:12:56;92517.94;;;17.49;26.63
39789;BME280;25478;42.626;23.320;2023-04-15T11:18:20;92522.56;;;17.35;28.70
39789;BME280;25478;42.626;23.320;2023-04-15T11:20:55;92521.50;;;17.33;29.01
39789;BME280;25478;42.626;23.320;2023-04-15T11:26:00;92517.66;;;17.34;29.26
39789;BME280;25478;42.626;23.320;2023-04-15T11:28:31;92529.13;;;17.43;29.28
39789;BME280;25478;42.626;23.320;2023-04-15T11:30:57;92524.44;;;17.48;29.26
39789;BME280;25478;42.626;23.320;2023-04-15T11:33:23;92524.41;;;17.60;29.50
39789;BME280;25478;42.626;23.320;2023-04-15T11:35:51;92529.41;;;17.71;28.79
39789;BME280;25478;42.626;23.320;2023-04-15T11:38:18;92527.78;;;17.73;28.34
39789;BME280;25478;42.626;23.320;2023-04-15T11:40:44;92521.47;;;17.80;28.19
39789;BME280;25478;42.626;23.320;2023-04-15T11:43:12;92504.31;;;17.81;27.61
39789;BME280;25478;42.626;23.320;2023-04-15T11:48:13;92507.69;;;17.94;28.25
39789;BME280;25478;42.626;23.320;2023-04-15T11:50:39;92500.13;;;17.93;28.00
39789;BME280;25478;42.626;23.320;2023-04-15T11:53:10;92506.06;;;17.97;28.18
39789;BME280;25478;42.626;23.320;2023-04-15T11:55:44;92517.59;;;17.94;27.82
39789;BME280;25478;42.626;23.320;2023-04-15T12:00:58;92516.16;;;17.80;27.31
39789;BME280;25478;42.626;23.320;2023-04-15T12:16:24;92512.25;;;17.72;27.77
39789;BME280;25478;42.626;23.320;2023-04-15T12:18:54;92516.47;;;17.82;28.01
39789;BME280;25478;42.626;23.320;2023-04-15T12:21:21;92518.47;;;17.91;28.36
39789;BME280;25478;42.626;23.320;2023-04-15T12:23:48;92517.69;;;17.90;29.12
39789;BME280;25478;42.626;23.320;2023-04-15T12:26:25;92510.59;;;17.87;28.90
39789;BME280;25478;42.626;23.320;2023-04-15T12:28:55;92519.69;;;17.99;28.75
39789;BME280;25478;42.626;23.320;2023-04-15T12:31:24;92519.56;;;18.03;28.45
39789;BME280;25478;42.626;23.320;2023-04-15T12:33:50;92522.00;;;18.10;28.25
39789;BME280;25478;42.626;23.320;2023-04-15T12:36:16;92505.72;;;18.08;28.43
39789;BME280;25478;42.626;23.320;2023-04-15T12:38:41;92525.75;;;18.21;28.31
39789;BME280;25478;42.626;23.320;2023-04-15T12:41:06;92520.13;;;18.19;28.31
39789;BME280;25478;42.626;23.320;2023-04-15T12:43:33;92533.19;;;18.26;28.88
39789;BME280;25478;42.626;23.320;2023-04-15T12:45:58;92526.25;;;18.29;28.76
39789;BME280;25478;42.626;23.320;2023-04-15T12:48:25;92532.75;;;18.28;28.45
39789;BME280;25478;42.626;23.320;2023-04-15T12:50:50;92525.25;;;18.14;28.71
39789;BME280;25478;42.626;23.320;2023-04-15T12:53:16;92528.66;;;18.14;28.88
39789;BME280;25478;42.626;23.320;2023-04-15T12:55:43;92528.56;;;18.18;28.99
39789;BME280;25478;42.626;23.320;2023-04-15T12:58:08;92526.94;;;18.20;28.73
39789;BME280;25478;42.626;23.320;2023-04-15T13:00:36;92524.72;;;18.19;28.65
39789;BME280;25478;42.626;23.320;2023-04-15T13:03:01;92523.66;;;18.16;28.61
39789;BME280;25478;42.626;23.320;2023-04-15T13:05:27;92519.78;;;18.08;27.90
39789;BME280;25478;42.626;23.320;2023-04-15T13:07:53;92510.91;;;17.89;28.75
39789;BME280;25478;42.626;23.320;2023-04-15T13:10:18;92520.50;;;17.87;28.69
39789;BME280;25478;42.626;23.320;2023-04-15T13:12:44;92510.53;;;17.78;29.11
39789;BME280;25478;42.626;23.320;2023-04-15T13:15:11;92508.00;;;17.75;29.24
39789;BME280;25478;42.626;23.320;2023-04-15T13:17:37;92515.47;;;17.89;29.38
39789;BME280;25478;42.626;23.320;2023-04-15T13:20:03;92487.94;;;17.83;29.04
39789;BME280;25478;42.626;23.320;2023-04-15T13:22:28;92504.19;;;18.07;28.94
39789;BME280;25478;42.626;23.320;2023-04-15T13:24:54;92508.53;;;18.13;28.56
39789;BME280;25478;42.626;23.320;2023-04-15T13:27:19;92509.41;;;18.10;28.84
39789;BME280;25478;42.626;23.320;2023-04-15T13:29:45;92504.28;;;17.94;28.91
39789;BME280;25478;42.626;23.320;2023-04-15T13:32:11;92519.13;;;17.82;28.79